createdAt,value
2018-08-19T00:01:07.634Z,78.25
2018-08-19T00:03:35.223Z,78.25
2018-08-19T00:06:03.054Z,77.74
2018-08-19T00:08:30.722Z,78.30
2018-08-19T00:11:01.761Z,77.94
2018-08-19T00:13:29.411Z,78.23
2018-08-19T00:15:57.090Z,77.73
2018-08-19T00:18:24.630Z,78.28
2018-08-19T00:20:52.152Z,77.82
2018-08-19T00:23:19.889Z,77.97
2018-08-19T00:25:47.462Z,77.99
2018-08-19T00:28:17.072Z,77.77
2018-08-19T00:30:44.779Z,77.82
2018-08-19T00:33:12.575Z,78.21
2018-08-19T00:35:40.107Z,78.23
2018-08-19T00:38:10.546Z,77.75
2018-08-19T00:40:38.603Z,78.34
2018-08-19T00:43:06.168Z,78.28
2018-08-19T00:45:33.800Z,77.85
2018-08-19T00:48:01.366Z,78.16
2018-08-19T00:50:28.976Z,78.27
2018-08-19T00:52:56.715Z,77.75
2018-08-19T00:55:24.745Z,77.90
2018-08-19T00:57:56.603Z,77.59
2018-08-19T01:00:24.488Z,77.36
2018-08-19T01:02:52.009Z,77.48
2018-08-19T01:05:19.557Z,77.38
2018-08-19T01:07:47.373Z,77.48
2018-08-19T01:10:14.910Z,77.10
2018-08-19T01:12:42.476Z,77.15
2018-08-19T01:15:10.850Z,77.35
2018-08-19T01:17:43.180Z,76.69
2018-08-19T01:20:12.542Z,76.84
2018-08-19T01:22:41.346Z,76.55
2018-08-19T01:25:10.295Z,76.36
2018-08-19T01:27:38.898Z,76.88
2018-08-19T01:30:11.476Z,76.58
2018-08-19T01:32:39.226Z,76.48
2018-08-19T01:35:06.721Z,76.76
2018-08-19T01:37:35.983Z,76.95
2018-08-19T01:40:05.050Z,77.00
2018-08-19T01:42:34.169Z,76.69
2018-08-19T01:45:01.589Z,76.21
2018-08-19T01:47:29.352Z,76.59
2018-08-19T01:49:56.863Z,76.69
2018-08-19T01:52:24.401Z,76.34
2018-08-19T01:54:52.003Z,76.58
2018-08-19T01:57:19.539Z,76.66
2018-08-19T01:59:47.023Z,76.09
2018-08-19T02:02:14.792Z,75.89
2018-08-19T02:04:47.959Z,76.29
2018-08-19T02:07:15.723Z,75.79
2018-08-19T02:09:57.842Z,75.67
2018-08-19T02:12:30.519Z,76.08
2018-08-19T02:14:58.002Z,75.42
2018-08-19T02:17:25.553Z,75.69
2018-08-19T02:19:53.121Z,75.76
2018-08-19T02:22:20.626Z,75.67
2018-08-19T02:24:50.744Z,75.48
2018-08-19T02:27:18.432Z,75.50
2018-08-19T02:29:45.860Z,75.52
2018-08-19T02:32:13.321Z,75.15
2018-08-19T02:34:43.811Z,75.19
2018-08-19T02:37:13.407Z,75.03
2018-08-19T02:39:42.907Z,75.30
2018-08-19T02:42:23.882Z,74.80
2018-08-19T02:44:53.433Z,74.52
2018-08-19T02:47:20.999Z,74.80
2018-08-19T02:49:48.538Z,75.17
2018-08-19T02:52:21.506Z,75.24
2018-08-19T02:54:49.146Z,74.99
2018-08-19T02:57:16.639Z,74.85
2018-08-19T02:59:44.126Z,74.90
2018-08-19T03:02:23.770Z,74.67
2018-08-19T03:04:52.146Z,74.64
2018-08-19T03:07:20.057Z,74.64
2018-08-19T03:09:50.764Z,74.79
2018-08-19T03:12:18.418Z,74.85
2018-08-19T03:14:45.880Z,74.75
2018-08-19T03:17:13.667Z,74.66
2018-08-19T03:19:41.164Z,74.61
2018-08-19T03:22:09.299Z,75.14
2018-08-19T03:24:36.892Z,75.12
2018-08-19T03:27:04.386Z,74.88
2018-08-19T03:29:31.913Z,75.30
2018-08-19T03:32:00.731Z,75.00
2018-08-19T03:34:29.241Z,75.35
2018-08-19T03:36:58.093Z,74.97
2018-08-19T03:39:25.898Z,75.10
2018-08-19T03:41:53.417Z,74.96
2018-08-19T03:44:20.994Z,74.94
2018-08-19T03:46:48.714Z,75.06
2018-08-19T03:49:16.570Z,75.19
2018-08-19T03:51:44.068Z,75.02
2018-08-19T03:54:11.782Z,75.13
2018-08-19T03:56:39.221Z,74.67
2018-08-19T03:59:06.954Z,74.84
2018-08-19T04:01:42.346Z,75.08
2018-08-19T04:04:10.421Z,75.18
2018-08-19T04:06:39.741Z,75.20
2018-08-19T04:09:07.358Z,74.68
2018-08-19T04:11:35.005Z,74.69
2018-08-19T04:14:03.033Z,74.67
2018-08-19T04:16:30.769Z,74.82
2018-08-19T04:19:06.675Z,74.32
2018-08-19T04:21:34.291Z,74.47
2018-08-19T04:24:01.760Z,74.33
2018-08-19T04:26:29.861Z,74.61
2018-08-19T04:28:57.513Z,74.69
2018-08-19T04:31:24.940Z,74.17
2018-08-19T04:33:53.015Z,74.52
2018-08-19T04:36:21.536Z,74.26
2018-08-19T04:38:49.149Z,74.57
2018-08-19T04:41:16.805Z,74.31
2018-08-19T04:43:44.889Z,74.12
2018-08-19T04:46:12.390Z,74.06
2018-08-19T04:48:39.927Z,74.60
2018-08-19T04:51:07.709Z,74.17
2018-08-19T04:53:35.301Z,74.35
2018-08-19T04:56:02.823Z,74.54
2018-08-19T04:58:30.443Z,74.49
2018-08-19T05:00:58.027Z,74.63
2018-08-19T05:03:25.523Z,74.40
2018-08-19T05:05:53.279Z,74.52
2018-08-19T05:08:20.980Z,74.69
2018-08-19T05:10:48.448Z,74.43
2018-08-19T05:13:16.141Z,74.57
2018-08-19T05:15:44.052Z,74.42
2018-08-19T05:18:11.534Z,74.52
2018-08-19T05:20:39.237Z,74.10
2018-08-19T05:23:07.292Z,73.70
2018-08-19T05:26:10.390Z,73.54
2018-08-19T05:28:37.966Z,73.10
2018-08-19T05:31:05.516Z,73.00
2018-08-19T05:33:33.002Z,73.21
2018-08-19T05:36:00.772Z,72.46
2018-08-19T05:38:30.006Z,72.47
2018-08-19T05:41:00.503Z,72.69
2018-08-19T05:43:28.678Z,72.05
2018-08-19T05:45:58.378Z,71.04
2018-08-19T05:48:26.013Z,70.67
2018-08-19T05:50:53.863Z,70.69
2018-08-19T05:53:21.802Z,70.55
2018-08-19T05:55:49.460Z,70.85
2018-08-19T05:58:17.198Z,70.15
2018-08-19T06:00:49.306Z,70.71
2018-08-19T06:03:16.791Z,70.31
2018-08-19T06:05:44.408Z,69.75
2018-08-19T06:08:14.142Z,69.65
2018-08-19T06:10:41.769Z,69.86
2018-08-19T06:13:10.296Z,69.81
2018-08-19T06:15:37.839Z,69.51
2018-08-19T06:18:05.690Z,68.85
2018-08-19T06:20:33.445Z,68.74
2018-08-19T06:23:01.086Z,68.41
2018-08-19T06:25:28.684Z,68.04
2018-08-19T06:27:57.403Z,67.82
2018-08-19T06:30:25.003Z,67.75
2018-08-19T06:32:52.674Z,67.55
2018-08-19T06:35:20.399Z,67.15
2018-08-19T06:37:47.911Z,66.58
2018-08-19T06:40:17.965Z,66.38
2018-08-19T06:42:45.629Z,65.14
2018-08-19T06:45:13.648Z,65.67
2018-08-19T06:47:41.256Z,65.58
2018-08-19T06:50:21.546Z,65.24
2018-08-19T06:52:49.403Z,64.55
2018-08-19T06:55:17.335Z,64.07
2018-08-19T06:57:44.860Z,63.99
2018-08-19T07:00:31.267Z,63.67
2018-08-19T07:02:59.777Z,63.61
2018-08-19T07:05:27.668Z,63.34
2018-08-19T07:07:55.169Z,63.10
2018-08-19T07:10:29.591Z,63.20
2018-08-19T07:13:02.761Z,62.17
2018-08-19T07:15:30.292Z,62.31
2018-08-19T07:17:57.833Z,61.26
2018-08-19T07:20:26.915Z,61.56
2018-08-19T07:22:54.878Z,61.46
2018-08-19T07:25:22.393Z,60.85
2018-08-19T07:27:49.961Z,60.89
2018-08-19T07:30:17.365Z,60.03
2018-08-19T07:32:44.831Z,59.74
2018-08-19T07:35:12.476Z,59.29
2018-08-19T07:37:39.986Z,59.49
2018-08-19T07:40:07.428Z,59.62
2018-08-19T07:42:35.199Z,58.62
2018-08-19T07:45:02.772Z,58.82
2018-08-19T07:47:30.230Z,58.61
2018-08-19T07:49:57.912Z,58.30
2018-08-19T07:52:25.420Z,58.21
2018-08-19T07:54:52.896Z,57.76
2018-08-19T07:57:26.996Z,57.63
2018-08-19T07:59:54.556Z,57.49
2018-08-19T08:02:25.015Z,57.67
2018-08-19T08:04:52.786Z,57.04
2018-08-19T08:07:20.275Z,57.33
2018-08-19T08:09:47.790Z,56.78
2018-08-19T08:12:15.678Z,56.77
2018-08-19T08:14:49.260Z,55.98
2018-08-19T08:17:16.962Z,56.32
2018-08-19T08:19:52.042Z,56.34
2018-08-19T08:22:19.915Z,55.78
2018-08-19T08:24:47.382Z,55.71
2018-08-19T08:27:14.835Z,55.30
2018-08-19T08:29:42.441Z,55.13
2018-08-19T08:32:10.073Z,55.07
2018-08-19T08:34:37.621Z,54.44
2018-08-19T08:37:05.984Z,53.96
2018-08-19T08:39:34.707Z,53.99
2018-08-19T08:42:02.226Z,53.29
2018-08-19T08:44:30.155Z,53.49
2018-08-19T08:47:00.709Z,53.27
2018-08-19T08:49:35.636Z,53.04
2018-08-19T08:52:09.826Z,52.69
2018-08-19T08:54:37.520Z,52.76
2018-08-19T08:57:05.106Z,52.29
2018-08-19T08:59:32.650Z,51.64
2018-08-19T09:02:00.406Z,52.20
2018-08-19T09:04:27.938Z,51.17
2018-08-19T09:06:55.346Z,50.47
2018-08-19T09:09:22.974Z,50.57
2018-08-19T09:11:50.495Z,50.68
2018-08-19T09:14:17.985Z,50.45
2018-08-19T09:16:45.734Z,50.66
2018-08-19T09:19:13.354Z,49.69
2018-08-19T09:21:40.887Z,50.06
2018-08-19T09:24:08.682Z,49.57
2018-08-19T09:26:36.249Z,49.67
2018-08-19T09:29:03.753Z,49.66
2018-08-19T09:31:31.337Z,49.20
2018-08-19T09:33:58.750Z,48.60
2018-08-19T09:36:26.414Z,48.89
2018-08-19T09:38:55.020Z,48.73
2018-08-19T09:41:24.703Z,48.86
2018-08-19T09:43:52.245Z,48.84
2018-08-19T09:46:19.898Z,48.20
2018-08-19T09:48:47.412Z,47.21
2018-08-19T09:51:14.852Z,46.21
2018-08-19T09:53:42.457Z,46.70
2018-08-19T09:56:10.704Z,45.73
2018-08-19T09:58:38.474Z,45.07
2018-08-19T10:01:11.771Z,44.68
2018-08-19T10:03:39.713Z,44.96
2018-08-19T10:06:07.288Z,44.07
2018-08-19T10:08:34.724Z,43.37
2018-08-19T10:11:02.524Z,43.41
2018-08-19T10:13:30.402Z,42.63
2018-08-19T10:15:57.948Z,42.18
2018-08-19T10:18:25.946Z,41.77
2018-08-19T10:20:53.352Z,42.24
2018-08-19T10:23:23.118Z,40.85
2018-08-19T10:25:51.250Z,41.24
2018-08-19T10:28:18.675Z,40.72
2018-08-19T10:30:58.025Z,40.83
2018-08-19T10:33:25.738Z,40.58
2018-08-19T10:35:54.210Z,40.55
2018-08-19T10:38:21.666Z,39.97
2018-08-19T10:40:54.823Z,39.89
2018-08-19T10:43:22.606Z,39.79
2018-08-19T10:45:50.087Z,39.02
2018-08-19T10:48:17.589Z,38.92
2018-08-19T10:50:45.264Z,39.08
2018-08-19T10:53:18.350Z,38.59
2018-08-19T10:55:46.679Z,38.65
2018-08-19T10:58:14.273Z,39.28
2018-08-19T11:00:41.772Z,39.34
2018-08-19T11:03:24.610Z,40.00
2018-08-19T11:05:53.837Z,38.92
2018-08-19T11:08:21.326Z,38.87
2018-08-19T11:10:48.866Z,38.35
2018-08-19T11:13:22.342Z,38.57
2018-08-19T11:15:56.646Z,37.59
2018-08-19T11:18:30.107Z,38.17
2018-08-19T11:22:01.327Z,38.78
2018-08-19T11:24:29.001Z,38.16
2018-08-19T11:27:01.107Z,38.36
2018-08-19T11:29:28.849Z,38.03
2018-08-19T11:31:56.665Z,38.14
2018-08-19T11:34:24.150Z,37.41
2018-08-19T11:36:52.862Z,37.96
2018-08-19T11:39:22.177Z,38.07
2018-08-19T11:41:49.712Z,37.78
2018-08-19T11:44:17.497Z,37.74
2018-08-19T11:46:45.142Z,38.18
2018-08-19T11:49:16.829Z,37.72
2018-08-19T11:51:49.955Z,36.47
2018-08-19T11:54:18.289Z,36.44
2018-08-19T11:56:55.578Z,36.51
2018-08-19T11:59:28.273Z,36.61
2018-08-19T12:01:55.853Z,35.78
2018-08-19T12:04:23.351Z,36.11
2018-08-19T12:06:50.961Z,36.34
2018-08-19T12:09:18.449Z,35.70
2018-08-19T12:11:45.951Z,34.77
2018-08-19T12:14:14.561Z,35.84
2018-08-19T12:16:49.615Z,35.10
2018-08-19T12:19:22.767Z,35.39
2018-08-19T12:21:54.578Z,35.28
2018-08-19T12:24:25.403Z,35.21
2018-08-19T12:26:55.431Z,36.20
2018-08-19T12:29:24.158Z,35.97
2018-08-19T12:31:56.958Z,34.39
2018-08-19T12:34:24.826Z,35.46
2018-08-19T12:36:52.360Z,34.79
2018-08-19T12:39:19.911Z,35.31
2018-08-19T12:41:51.877Z,34.52
2018-08-19T12:44:19.422Z,34.88
2018-08-19T12:47:02.072Z,35.19
2018-08-19T12:49:32.431Z,35.15
2018-08-19T12:52:00.154Z,34.92
2018-08-19T12:54:27.613Z,34.03
2018-08-19T12:56:55.001Z,34.30
2018-08-19T12:59:22.793Z,34.36
2018-08-19T13:01:50.269Z,34.45
2018-08-19T13:04:17.790Z,34.80
2018-08-19T13:06:56.590Z,34.63
2018-08-19T13:09:28.515Z,34.21
2018-08-19T13:12:02.328Z,34.18
2018-08-19T13:14:30.433Z,34.56
2018-08-19T13:16:57.945Z,34.41
2018-08-19T13:19:25.669Z,33.62
2018-08-19T13:21:53.136Z,34.14
2018-08-19T13:24:25.267Z,34.41
2018-08-19T13:26:52.952Z,34.23
2018-08-19T13:29:20.680Z,34.85
2018-08-19T13:31:48.331Z,35.39
2018-08-19T13:34:16.006Z,35.78
2018-08-19T13:36:43.706Z,35.60
2018-08-19T13:39:11.161Z,35.34
2018-08-19T13:41:38.819Z,34.61
2018-08-19T13:44:06.399Z,35.50
2018-08-19T13:46:33.798Z,35.37
2018-08-19T13:49:01.375Z,35.39
2018-08-19T13:51:28.789Z,35.48
2018-08-19T13:56:23.382Z,36.40
2018-08-19T13:58:50.890Z,35.66
2018-08-19T14:01:49.361Z,36.21
2018-08-19T14:04:16.868Z,35.22
2018-08-19T14:06:44.960Z,35.78
2018-08-19T14:09:12.882Z,36.40
2018-08-19T14:11:40.778Z,36.41
2018-08-19T14:14:08.925Z,36.08
2018-08-19T14:16:36.657Z,35.79
2018-08-19T14:19:04.803Z,36.06
2018-08-19T14:21:32.365Z,35.97
2018-08-19T14:24:01.067Z,36.87
2018-08-19T14:26:28.581Z,36.65
2018-08-19T14:28:56.072Z,37.02
2018-08-19T14:31:23.738Z,37.40
2018-08-19T14:33:51.388Z,37.67
2018-08-19T14:36:18.875Z,37.58
2018-08-19T14:38:46.518Z,37.17
2018-08-19T14:41:14.424Z,37.19
2018-08-19T14:43:55.976Z,37.24
2018-08-19T14:46:24.153Z,37.36
2018-08-19T14:48:56.381Z,37.95
2018-08-19T14:51:24.198Z,37.59
2018-08-19T14:53:51.895Z,37.94
2018-08-19T14:56:19.454Z,38.07
2018-08-19T14:58:47.190Z,37.38
2018-08-19T15:01:14.699Z,38.19
2018-08-19T15:03:47.612Z,38.41
2018-08-19T15:06:15.222Z,37.69
2018-08-19T15:08:43.574Z,38.11
2018-08-19T15:11:11.202Z,38.48
2018-08-19T15:13:38.780Z,38.39
2018-08-19T15:16:06.334Z,38.21
2018-08-19T15:18:33.757Z,38.00
2018-08-19T15:21:01.367Z,38.44
2018-08-19T15:23:28.873Z,38.31
2018-08-19T15:25:56.425Z,38.70
2018-08-19T15:28:24.044Z,38.89
2018-08-19T15:30:51.534Z,38.50
2018-08-19T15:33:20.432Z,38.95
2018-08-19T15:35:48.474Z,39.39
2018-08-19T15:38:16.012Z,39.26
2018-08-19T15:40:47.751Z,39.41
2018-08-19T15:43:15.474Z,39.84
2018-08-19T15:45:43.744Z,39.98
2018-08-19T15:48:11.303Z,39.55
2018-08-19T15:50:39.081Z,39.28
2018-08-19T15:53:07.179Z,39.33
2018-08-19T15:55:34.894Z,39.33
2018-08-19T15:58:03.382Z,39.90
2018-08-19T16:00:37.084Z,39.34
2018-08-19T16:03:04.719Z,39.96
2018-08-19T16:05:32.290Z,39.49
2018-08-19T16:07:59.901Z,39.85
2018-08-19T16:10:27.624Z,39.41
2018-08-19T16:12:55.198Z,39.64
2018-08-19T16:15:26.731Z,39.83
2018-08-19T16:17:55.375Z,39.29
2018-08-19T16:20:23.104Z,39.72
2018-08-19T16:22:50.879Z,39.14
2018-08-19T16:25:19.219Z,39.54
2018-08-19T16:27:46.747Z,39.22
2018-08-19T16:30:14.439Z,39.27
2018-08-19T16:32:42.170Z,39.01
2018-08-19T16:35:09.693Z,39.02
2018-08-19T16:37:37.425Z,39.33
2018-08-19T16:40:07.910Z,38.94
2018-08-19T16:42:35.358Z,38.79
2018-08-19T16:45:02.938Z,39.36
2018-08-19T16:47:30.558Z,39.55
2018-08-19T16:49:58.026Z,39.84
2018-08-19T16:52:25.528Z,39.53
2018-08-19T16:54:53.039Z,39.31
2018-08-19T16:57:20.621Z,39.19
2018-08-19T16:59:48.027Z,39.32
2018-08-19T17:02:15.677Z,39.71
2018-08-19T17:04:43.116Z,40.27
2018-08-19T17:07:11.188Z,40.12
2018-08-19T17:09:38.938Z,40.66
2018-08-19T17:12:06.507Z,40.98
2018-08-19T17:14:34.920Z,40.58
2018-08-19T17:17:02.590Z,41.00
2018-08-19T17:19:30.030Z,40.89
2018-08-19T17:21:57.642Z,40.94
2018-08-19T17:24:25.286Z,41.37
2018-08-19T17:26:58.288Z,40.85
2018-08-19T17:29:25.841Z,41.24
2018-08-19T17:31:53.444Z,40.61
2018-08-19T17:34:21.446Z,41.10
2018-08-19T17:36:48.949Z,41.07
2018-08-19T17:39:19.575Z,41.15
2018-08-19T17:41:47.255Z,41.11
2018-08-19T17:44:14.722Z,40.79
2018-08-19T17:46:42.323Z,40.60
2018-08-19T17:49:29.555Z,40.49
2018-08-19T17:51:58.224Z,40.62
2018-08-19T17:54:26.713Z,40.39
2018-08-19T17:56:54.756Z,40.48
2018-08-19T17:59:22.568Z,40.31
2018-08-19T18:01:49.967Z,40.20
2018-08-19T18:04:17.369Z,40.37
2018-08-19T18:06:45.022Z,40.40
2018-08-19T18:09:13.683Z,40.53
2018-08-19T18:11:42.248Z,40.49
2018-08-19T18:14:10.000Z,41.24
2018-08-19T18:16:37.427Z,41.24
2018-08-19T18:19:04.838Z,41.02
2018-08-19T18:21:36.159Z,41.20
2018-08-19T18:24:04.156Z,41.82
2018-08-19T18:26:31.654Z,41.56
2018-08-19T18:28:59.289Z,41.91
2018-08-19T18:31:26.861Z,42.08
2018-08-19T18:33:58.376Z,42.06
2018-08-19T18:36:27.038Z,42.01
2018-08-19T18:38:54.667Z,42.40
2018-08-19T18:41:27.929Z,42.48
2018-08-19T18:43:56.689Z,42.87
2018-08-19T18:46:24.433Z,42.82
2018-08-19T18:49:01.169Z,42.89
2018-08-19T18:51:29.635Z,42.85
2018-08-19T18:53:57.166Z,42.81
2018-08-19T18:56:25.368Z,43.46
2018-08-19T18:58:52.983Z,43.48
2018-08-19T19:01:20.446Z,43.22
2018-08-19T19:03:48.097Z,43.44
2018-08-19T19:06:15.760Z,44.13
2018-08-19T19:08:43.227Z,43.95
2018-08-19T19:11:10.660Z,43.82
2018-08-19T19:13:38.174Z,43.90
2018-08-19T19:16:05.722Z,44.10
2018-08-19T19:18:33.167Z,44.27
2018-08-19T19:21:02.557Z,44.70
2018-08-19T19:23:39.431Z,44.48
2018-08-19T19:26:07.709Z,44.52
2018-08-19T19:28:35.316Z,44.78
2018-08-19T19:31:17.241Z,44.94
2018-08-19T19:33:44.750Z,45.38
2018-08-19T19:36:18.619Z,45.31
2018-08-19T19:38:51.599Z,45.71
2018-08-19T19:41:24.983Z,45.28
2018-08-19T19:43:52.702Z,45.64
2018-08-19T19:46:20.276Z,45.65
2018-08-19T19:48:47.991Z,46.02
2018-08-19T19:51:15.524Z,45.97
2018-08-19T19:53:43.087Z,46.35
2018-08-19T19:56:11.896Z,46.84
2018-08-19T19:58:39.390Z,46.32
2018-08-19T20:01:06.947Z,46.95
2018-08-19T20:03:40.104Z,46.74
2018-08-19T20:06:07.639Z,47.04
2018-08-19T20:08:35.116Z,47.22
2018-08-19T20:11:02.621Z,47.48
2018-08-19T20:13:30.485Z,47.52
2018-08-19T20:15:57.921Z,47.26
2018-08-19T20:18:25.422Z,47.27
2018-08-19T20:20:53.169Z,47.60
2018-08-19T20:23:24.149Z,47.32
2018-08-19T20:25:52.134Z,47.81
2018-08-19T20:28:19.725Z,47.73
2018-08-19T20:30:47.201Z,47.83
2018-08-19T20:33:20.341Z,48.07
2018-08-19T20:35:48.067Z,48.28
2018-08-19T20:38:15.578Z,48.14
2018-08-19T20:40:43.179Z,48.30
2018-08-19T20:43:13.539Z,48.86
2018-08-19T20:45:41.228Z,49.31
2018-08-19T20:48:09.162Z,49.36
2018-08-19T20:50:37.365Z,49.13
2018-08-19T20:53:04.889Z,49.46
2018-08-19T20:55:32.321Z,49.82
2018-08-19T20:58:00.107Z,50.06
2018-08-19T21:00:27.528Z,49.79
2018-08-19T21:02:55.033Z,50.31
2018-08-19T21:05:22.802Z,50.51
2018-08-19T21:07:51.068Z,50.61
2018-08-19T21:10:18.489Z,50.40
2018-08-19T21:12:46.185Z,50.89
2018-08-19T21:15:14.526Z,50.75
2018-08-19T21:17:42.022Z,51.04
2018-08-19T21:20:09.657Z,51.48
2018-08-19T21:22:37.144Z,51.56
2018-08-19T21:25:04.812Z,51.65
2018-08-19T21:27:32.416Z,51.88
2018-08-19T21:29:59.862Z,51.91
2018-08-19T21:32:27.340Z,51.95
2018-08-19T21:34:54.975Z,52.40
2018-08-19T21:37:27.030Z,52.10
2018-08-19T21:39:54.489Z,51.99
2018-08-19T21:42:22.218Z,52.12
2018-08-19T21:44:49.727Z,52.39
2018-08-19T21:47:17.305Z,52.97
2018-08-19T21:49:49.669Z,53.25
2018-08-19T21:52:17.129Z,53.25
2018-08-19T21:54:44.552Z,53.02
2018-08-19T21:57:12.237Z,53.56
2018-08-19T21:59:39.712Z,53.65
2018-08-19T22:02:11.707Z,53.28
2018-08-19T22:04:39.378Z,53.93
2018-08-19T22:07:06.965Z,53.80
2018-08-19T22:09:35.747Z,53.92
2018-08-19T22:12:03.690Z,54.40
2018-08-19T22:14:31.826Z,53.97
2018-08-19T22:17:04.888Z,54.50
2018-08-19T22:19:32.425Z,54.38
2018-08-19T22:21:59.975Z,54.27
2018-08-19T22:24:27.542Z,54.49
2018-08-19T22:26:58.253Z,54.52
2018-08-19T22:29:25.708Z,55.09
2018-08-19T22:31:53.376Z,54.97
2018-08-19T22:34:21.008Z,54.94
2018-08-19T22:36:48.495Z,55.14
2018-08-19T22:39:17.300Z,55.64
2018-08-19T22:41:47.374Z,55.18
2018-08-19T22:44:15.059Z,55.30
2018-08-19T22:46:42.550Z,55.31
2018-08-19T22:49:10.354Z,55.36
2018-08-19T22:51:37.900Z,55.90
2018-08-19T22:54:05.430Z,55.88
2018-08-19T22:56:33.204Z,56.00
2018-08-19T22:59:00.672Z,56.00
2018-08-19T23:01:33.916Z,56.05
2018-08-19T23:04:02.246Z,56.39
2018-08-19T23:06:30.379Z,56.31
2018-08-19T23:08:57.884Z,56.39
2018-08-19T23:11:32.440Z,56.58
2018-08-19T23:14:11.196Z,56.32
2018-08-19T23:16:38.790Z,56.70
2018-08-19T23:19:06.273Z,56.69
2018-08-19T23:21:33.759Z,56.83
2018-08-19T23:24:01.342Z,56.74
2018-08-19T23:26:28.784Z,56.54
2018-08-19T23:28:56.209Z,57.15
2018-08-19T23:31:23.951Z,57.18
2018-08-19T23:33:51.382Z,56.90
2018-08-19T23:36:18.889Z,56.53
2018-08-19T23:38:46.422Z,57.04
2018-08-19T23:41:13.910Z,56.98
2018-08-19T23:43:42.186Z,56.96
2018-08-19T23:46:09.858Z,56.83
2018-08-19T23:48:37.325Z,57.02
2018-08-19T23:51:05.563Z,56.66
2018-08-19T23:53:33.324Z,57.13
2018-08-19T23:56:00.823Z,57.11
2018-08-19T23:58:28.292Z,57.15
